sensor_id;sensor_type;location;lat;lon;timestamp;pressure;altitude;pressure_sealevel;temperature;humidity
31299;BME280;17927;52.350;13.402;2023-02-18T00:01:52;101126.63;;;11.75;50.13
31299;BME280;17927;52.350;13.402;2023-02-18T00:04:17;101129.63;;;11.71;50.43
31299;BME280;17927;52.350;13.402;2023-02-18T00:06:43;101137.03;;;11.69;50.19
31299;BME280;17927;52.350;13.402;2023-02-18T00:09:09;101137.19;;;11.68;50.02
31299;BME280;17927;52.350;13.402;2023-02-18T00:11:36;101132.03;;;11.65;50.22
31299;BME280;17927;52.350;13.402;2023-02-18T00:14:04;101142.16;;;11.63;50.31
31299;BME280;17927;52.350;13.402;2023-02-18T00:16:30;101139.75;;;11.60;50.35
31299;BME280;17927;52.350;13.402;2023-02-18T00:19:00;101140.75;;;11.58;50.28
31299;BME280;17927;52.350;13.402;2023-02-18T00:21:25;101151.84;;;11.55;50.58
31299;BME280;17927;52.350;13.402;2023-02-18T00:23:51;101152.81;;;11.54;50.44
31299;BME280;17927;52.350;13.402;2023-02-18T00:26:17;101147.41;;;11.54;50.53
31299;BME280;17927;52.350;13.402;2023-02-18T00:28:43;101145.72;;;11.53;50.63
31299;BME280;17927;52.350;13.402;2023-02-18T00:31:12;101139.31;;;11.54;50.53
31299;BME280;17927;52.350;13.402;2023-02-18T00:33:38;101148.25;;;11.55;50.57
31299;BME280;17927;52.350;13.402;2023-02-18T00:36:06;101146.69;;;11.52;50.36
31299;BME280;17927;52.350;13.402;2023-02-18T00:38:32;101137.59;;;11.53;50.57
31299;BME280;17927;52.350;13.402;2023-02-18T00:40:58;101149.41;;;11.52;50.63
31299;BME280;17927;52.350;13.402;2023-02-18T00:43:23;101165.78;;;11.51;50.76
31299;BME280;17927;52.350;13.402;2023-02-18T00:45:49;101165.91;;;11.49;50.45
31299;BME280;17927;52.350;13.402;2023-02-18T00:48:14;101154.25;;;11.49;50.73
31299;BME280;17927;52.350;13.402;2023-02-18T00:50:39;101156.22;;;11.47;50.83
31299;BME280;17927;52.350;13.402;2023-02-18T00:53:04;101160.09;;;11.44;50.56
31299;BME280;17927;52.350;13.402;2023-02-18T00:55:30;101164.78;;;11.42;50.67
31299;BME280;17927;52.350;13.402;2023-02-18T00:57:55;101162.34;;;11.39;50.59
31299;BME280;17927;52.350;13.402;2023-02-18T01:00:20;101160.78;;;11.36;50.71
31299;BME280;17927;52.350;13.402;2023-02-18T01:02:46;101166.56;;;11.32;50.31
31299;BME280;17927;52.350;13.402;2023-02-18T01:05:11;101166.00;;;11.28;50.44
31299;BME280;17927;52.350;13.402;2023-02-18T01:07:36;101171.69;;;11.25;50.45
31299;BME280;17927;52.350;13.402;2023-02-18T01:10:02;101160.28;;;11.21;50.78
31299;BME280;17927;52.350;13.402;2023-02-18T01:12:28;101153.31;;;11.19;50.58
31299;BME280;17927;52.350;13.402;2023-02-18T01:14:53;101163.41;;;11.17;50.63
31299;BME280;17927;52.350;13.402;2023-02-18T01:17:18;101159.25;;;11.12;50.98
31299;BME280;17927;52.350;13.402;2023-02-18T01:19:43;101165.81;;;11.10;50.62
31299;BME280;17927;52.350;13.402;2023-02-18T01:22:09;101155.97;;;11.09;51.03
31299;BME280;17927;52.350;13.402;2023-02-18T01:24:34;101160.81;;;11.05;50.78
31299;BME280;17927;52.350;13.402;2023-02-18T01:26:59;101164.63;;;11.03;50.78
31299;BME280;17927;52.350;13.402;2023-02-18T01:29:24;101165.75;;;11.00;50.89
31299;BME280;17927;52.350;13.402;2023-02-18T01:31:50;101166.03;;;10.97;51.05
31299;BME280;17927;52.350;13.402;2023-02-18T01:34:15;101167.88;;;10.96;50.89
31299;BME280;17927;52.350;13.402;2023-02-18T01:36:40;101158.06;;;10.95;51.06
31299;BME280;17927;52.350;13.402;2023-02-18T01:39:06;101154.63;;;10.93;51.04
31299;BME280;17927;52.350;13.402;2023-02-18T01:41:31;101164.56;;;10.93;51.07
31299;BME280;17927;52.350;13.402;2023-02-18T01:46:37;101160.72;;;10.86;51.50
31299;BME280;17927;52.350;13.402;2023-02-18T01:49:03;101161.72;;;10.85;51.36
31299;BME280;17927;52.350;13.402;2023-02-18T01:51:31;101153.72;;;10.83;51.50
31299;BME280;17927;52.350;13.402;2023-02-18T01:54:08;101153.88;;;10.81;51.17
31299;BME280;17927;52.350;13.402;2023-02-18T01:56:43;101143.31;;;10.78;51.41
31299;BME280;17927;52.350;13.402;2023-02-18T01:59:13;101165.09;;;10.77;51.57
31299;BME280;17927;52.350;13.402;2023-02-18T02:01:41;101152.72;;;10.74;51.67
31299;BME280;17927;52.350;13.402;2023-02-18T02:04:07;101161.81;;;10.73;51.48
31299;BME280;17927;52.350;13.402;2023-02-18T02:06:33;101158.22;;;10.73;51.50
31299;BME280;17927;52.350;13.402;2023-02-18T02:09:01;101169.91;;;10.73;51.70
31299;BME280;17927;52.350;13.402;2023-02-18T02:14:10;101159.22;;;10.72;51.47
31299;BME280;17927;52.350;13.402;2023-02-18T02:17:03;101157.66;;;10.69;51.49
31299;BME280;17927;52.350;13.402;2023-02-18T02:19:51;101157.91;;;10.66;51.63
31299;BME280;17927;52.350;13.402;2023-02-18T02:22:53;101156.34;;;10.63;51.67
31299;BME280;17927;52.350;13.402;2023-02-18T02:28:38;101154.03;;;10.59;51.71
31299;BME280;17927;52.350;13.402;2023-02-18T02:31:35;101155.16;;;10.56;51.59
31299;BME280;17927;52.350;13.402;2023-02-18T02:36:37;101169.53;;;10.57;51.72
31299;BME280;17927;52.350;13.402;2023-02-18T02:39:26;101167.66;;;10.57;51.59
31299;BME280;17927;52.350;13.402;2023-02-18T02:42:03;101156.03;;;10.57;51.75
31299;BME280;17927;52.350;13.402;2023-02-18T02:47:32;101156.03;;;10.57;51.46
31299;BME280;17927;52.350;13.402;2023-02-18T02:50:20;101162.53;;;10.54;51.29
31299;BME280;17927;52.350;13.402;2023-02-18T02:52:56;101162.78;;;10.51;51.76
31299;BME280;17927;52.350;13.402;2023-02-18T02:55:22;101167.34;;;10.50;51.62
31299;BME280;17927;52.350;13.402;2023-02-18T02:57:50;101170.03;;;10.50;51.82
31299;BME280;17927;52.350;13.402;2023-02-18T03:00:22;101181.84;;;10.49;51.73
31299;BME280;17927;52.350;13.402;2023-02-18T03:03:14;101184.69;;;10.48;51.71
31299;BME280;17927;52.350;13.402;2023-02-18T03:05:49;101185.91;;;10.44;51.72
31299;BME280;17927;52.350;13.402;2023-02-18T03:08:38;101175.97;;;10.44;51.49
31299;BME280;17927;52.350;13.402;2023-02-18T03:11:08;101185.91;;;10.44;51.65
31299;BME280;17927;52.350;13.402;2023-02-18T03:18:58;101184.25;;;10.31;51.56
31299;BME280;17927;52.350;13.402;2023-02-18T03:21:36;101180.41;;;10.34;51.57
31299;BME280;17927;52.350;13.402;2023-02-18T03:24:08;101178.59;;;10.34;51.56
31299;BME280;17927;52.350;13.402;2023-02-18T03:26:37;101179.56;;;10.33;51.29
31299;BME280;17927;52.350;13.402;2023-02-18T03:29:06;101180.56;;;10.32;51.26
31299;BME280;17927;52.350;13.402;2023-02-18T03:31:35;101176.88;;;10.33;51.24
31299;BME280;17927;52.350;13.402;2023-02-18T03:34:10;101178.59;;;10.34;51.53
31299;BME280;17927;52.350;13.402;2023-02-18T03:36:36;101178.44;;;10.36;51.54
31299;BME280;17927;52.350;13.402;2023-02-18T03:39:13;101182.00;;;10.36;51.40
31299;BME280;17927;52.350;13.402;2023-02-18T03:41:40;101181.00;;;10.38;51.26
31299;BME280;17927;52.350;13.402;2023-02-18T03:44:07;101180.16;;;10.37;51.19
31299;BME280;17927;52.350;13.402;2023-02-18T03:46:33;101173.88;;;10.36;51.13
31299;BME280;17927;52.350;13.402;2023-02-18T03:48:59;101172.16;;;10.35;51.01
31299;BME280;17927;52.350;13.402;2023-02-18T03:51:24;101189.41;;;10.34;51.25
31299;BME280;17927;52.350;13.402;2023-02-18T03:53:49;101173.44;;;10.31;50.93
31299;BME280;17927;52.350;13.402;2023-02-18T03:56:14;101172.72;;;10.29;51.11
31299;BME280;17927;52.350;13.402;2023-02-18T03:58:40;101175.53;;;10.28;50.84
31299;BME280;17927;52.350;13.402;2023-02-18T04:01:05;101160.34;;;10.27;51.09
31299;BME280;17927;52.350;13.402;2023-02-18T04:03:31;101177.53;;;10.26;50.85
31299;BME280;17927;52.350;13.402;2023-02-18T04:05:56;101173.97;;;10.25;50.87
31299;BME280;17927;52.350;13.402;2023-02-18T04:08:22;101163.16;;;10.25;50.88
31299;BME280;17927;52.350;13.402;2023-02-18T04:10:48;101159.72;;;10.23;51.01
31299;BME280;17927;52.350;13.402;2023-02-18T04:13:13;101174.22;;;10.22;50.70
31299;BME280;17927;52.350;13.402;2023-02-18T04:15:38;101169.94;;;10.19;50.96
31299;BME280;17927;52.350;13.402;2023-02-18T04:18:04;101179.16;;;10.17;51.18
31299;BME280;17927;52.350;13.402;2023-02-18T04:20:30;101167.50;;;10.16;51.08
31299;BME280;17927;52.350;13.402;2023-02-18T04:22:55;101178.44;;;10.15;51.03
31299;BME280;17927;52.350;13.402;2023-02-18T04:25:20;101183.25;;;10.11;51.11
31299;BME280;17927;52.350;13.402;2023-02-18T04:27:45;101177.84;;;10.11;51.08
31299;BME280;17927;52.350;13.402;2023-02-18T04:30:11;101170.00;;;10.08;50.78
31299;BME280;17927;52.350;13.402;2023-02-18T04:32:36;101169.84;;;10.10;50.91
31299;BME280;17927;52.350;13.402;2023-02-18T04:35:02;101173.53;;;10.09;50.93
31299;BME280;17927;52.350;13.402;2023-02-18T04:37:27;101176.25;;;10.09;51.13
31299;BME280;17927;52.350;13.402;2023-02-18T04:39:52;101185.22;;;10.09;51.13
31299;BME280;17927;52.350;13.402;2023-02-18T04:42:18;101191.44;;;10.10;51.05
31299;BME280;17927;52.350;13.402;2023-02-18T04:44:43;101183.25;;;10.11;51.07
31299;BME280;17927;52.350;13.402;2023-02-18T04:47:08;101187.53;;;10.14;50.83
31299;BME280;17927;52.350;13.402;2023-02-18T04:49:34;101191.78;;;10.16;51.19
31299;BME280;17927;52.350;13.402;2023-02-18T04:51:59;101186.28;;;10.18;50.89
31299;BME280;17927;52.350;13.402;2023-02-18T04:54:24;101183.28;;;10.21;51.33
31299;BME280;17927;52.350;13.402;2023-02-18T04:56:50;101193.84;;;10.24;51.23
31299;BME280;17927;52.350;13.402;2023-02-18T04:59:15;101177.53;;;10.26;51.35
31299;BME280;17927;52.350;13.402;2023-02-18T05:01:41;101187.94;;;10.30;51.20
31299;BME280;17927;52.350;13.402;2023-02-18T05:04:06;101190.38;;;10.33;51.32
31299;BME280;17927;52.350;13.402;2023-02-18T05:06:31;101190.22;;;10.35;51.16
31299;BME280;17927;52.350;13.402;2023-02-18T05:08:56;101187.31;;;10.38;51.45
31299;BME280;17927;52.350;13.402;2023-02-18T05:11:22;101183.47;;;10.41;51.35
31299;BME280;17927;52.350;13.402;2023-02-18T05:13:47;101187.91;;;10.42;51.30
31299;BME280;17927;52.350;13.402;2023-02-18T05:16:12;101190.44;;;10.43;50.77
31299;BME280;17927;52.350;13.402;2023-02-18T05:18:38;101190.34;;;10.45;51.20
31299;BME280;17927;52.350;13.402;2023-02-18T05:21:03;101184.94;;;10.45;51.10
31299;BME280;17927;52.350;13.402;2023-02-18T05:23:28;101195.84;;;10.43;51.02
31299;BME280;17927;52.350;13.402;2023-02-18T05:25:54;101192.31;;;10.43;50.98
31299;BME280;17927;52.350;13.402;2023-02-18T05:28:19;101189.47;;;10.44;50.79
31299;BME280;17927;52.350;13.402;2023-02-18T05:30:44;101195.75;;;10.45;50.94
31299;BME280;17927;52.350;13.402;2023-02-18T05:33:10;101184.06;;;10.44;50.84
31299;BME280;17927;52.350;13.402;2023-02-18T05:35:35;101197.47;;;10.46;50.70
31299;BME280;17927;52.350;13.402;2023-02-18T05:38:00;101192.78;;;10.48;50.84
31299;BME280;17927;52.350;13.402;2023-02-18T05:40:25;101192.78;;;10.48;50.76
31299;BME280;17927;52.350;13.402;2023-02-18T05:42:51;101188.38;;;10.47;50.63
31299;BME280;17927;52.350;13.402;2023-02-18T05:45:16;101184.78;;;10.46;50.82
31299;BME280;17927;52.350;13.402;2023-02-18T05:47:41;101185.66;;;10.47;50.63
31299;BME280;17927;52.350;13.402;2023-02-18T05:50:07;101185.78;;;10.45;50.74
31299;BME280;17927;52.350;13.402;2023-02-18T05:52:32;101173.88;;;10.48;50.86
31299;BME280;17927;52.350;13.402;2023-02-18T05:54:58;101177.56;;;10.47;50.92
31299;BME280;17927;52.350;13.402;2023-02-18T05:57:23;101180.25;;;10.47;50.57
31299;BME280;17927;52.350;13.402;2023-02-18T05:59:48;101177.56;;;10.47;51.01
31299;BME280;17927;52.350;13.402;2023-02-18T06:02:14;101175.69;;;10.47;50.85
31299;BME280;17927;52.350;13.402;2023-02-18T06:04:39;101179.41;;;10.46;50.93
31299;BME280;17927;52.350;13.402;2023-02-18T06:07:05;101178.56;;;10.46;50.58
31299;BME280;17927;52.350;13.402;2023-02-18T06:09:30;101171.28;;;10.46;50.81
31299;BME280;17927;52.350;13.402;2023-02-18T06:11:55;101172.28;;;10.45;50.77
31299;BME280;17927;52.350;13.402;2023-02-18T06:14:20;101186.66;;;10.46;50.75
31299;BME280;17927;52.350;13.402;2023-02-18T06:16:45;101171.28;;;10.46;50.89
31299;BME280;17927;52.350;13.402;2023-02-18T06:19:11;101179.28;;;10.48;51.13
31299;BME280;17927;52.350;13.402;2023-02-18T06:21:36;101173.88;;;10.48;50.73
31299;BME280;17927;52.350;13.402;2023-02-18T06:24:01;101171.75;;;10.51;51.00
31299;BME280;17927;52.350;13.402;2023-02-18T06:26:26;101171.25;;;10.58;51.07
31299;BME280;17927;52.350;13.402;2023-02-18T06:28:52;101173.53;;;10.62;51.37
31299;BME280;17927;52.350;13.402;2023-02-18T06:31:17;101176.81;;;10.66;50.77
31299;BME280;17927;52.350;13.402;2023-02-18T06:33:42;101164.03;;;10.68;51.01
31299;BME280;17927;52.350;13.402;2023-02-18T06:36:10;101162.06;;;10.70;50.59
31299;BME280;17927;52.350;13.402;2023-02-18T06:38:37;101166.34;;;10.73;50.78
31299;BME280;17927;52.350;13.402;2023-02-18T06:41:04;101163.38;;;10.76;50.89
31299;BME280;17927;52.350;13.402;2023-02-18T06:43:29;101152.41;;;10.77;50.68
31299;BME280;17927;52.350;13.402;2023-02-18T06:45:54;101162.13;;;10.80;50.74
31299;BME280;17927;52.350;13.402;2023-02-18T06:48:20;101145.91;;;10.80;50.65
31299;BME280;17927;52.350;13.402;2023-02-18T06:50:45;101158.28;;;10.82;50.51
31299;BME280;17927;52.350;13.402;2023-02-18T06:53:11;101143.63;;;10.85;50.47
31299;BME280;17927;52.350;13.402;2023-02-18T06:55:37;101145.34;;;10.86;50.73
31299;BME280;17927;52.350;13.402;2023-02-18T06:58:02;101146.06;;;10.88;50.61
31299;BME280;17927;52.350;13.402;2023-02-18T07:00:27;101133.44;;;10.89;50.58
31299;BME280;17927;52.350;13.402;2023-02-18T07:02:53;101139.53;;;10.91;50.71
31299;BME280;17927;52.350;13.402;2023-02-18T07:05:18;101147.53;;;10.92;50.64
31299;BME280;17927;52.350;13.402;2023-02-18T07:07:43;101151.94;;;10.93;50.88
31299;BME280;17927;52.350;13.402;2023-02-18T07:10:08;101145.53;;;10.94;50.89
31299;BME280;17927;52.350;13.402;2023-02-18T07:12:34;101147.09;;;10.97;51.19
31299;BME280;17927;52.350;13.402;2023-02-18T07:14:59;101153.38;;;10.98;51.11
31299;BME280;17927;52.350;13.402;2023-02-18T07:17:25;101164.19;;;10.98;50.97
31299;BME280;17927;52.350;13.402;2023-02-18T07:19:50;101167.75;;;10.98;51.59
31299;BME280;17927;52.350;13.402;2023-02-18T07:22:15;101172.88;;;11.01;51.75
31299;BME280;17927;52.350;13.402;2023-02-18T07:24:41;101168.31;;;11.02;51.68
31299;BME280;17927;52.350;13.402;2023-02-18T07:27:06;101166.34;;;11.04;51.76
31299;BME280;17927;52.350;13.402;2023-02-18T07:29:31;101164.22;;;11.07;51.64
31299;BME280;17927;52.350;13.402;2023-02-18T07:31:56;101168.50;;;11.10;51.92
31299;BME280;17927;52.350;13.402;2023-02-18T07:34:22;101157.44;;;11.13;51.98
31299;BME280;17927;52.350;13.402;2023-02-18T07:36:47;101159.97;;;11.15;52.13
31299;BME280;17927;52.350;13.402;2023-02-18T07:39:12;101165.13;;;11.18;51.89
31299;BME280;17927;52.350;13.402;2023-02-18T07:41:38;101157.72;;;11.20;52.19
31299;BME280;17927;52.350;13.402;2023-02-18T07:44:03;101150.19;;;11.23;52.32
31299;BME280;17927;52.350;13.402;2023-02-18T07:46:29;101149.06;;;11.26;52.33
31299;BME280;17927;52.350;13.402;2023-02-18T07:48:57;101140.81;;;11.27;52.63
31299;BME280;17927;52.350;13.402;2023-02-18T07:51:23;101123.44;;;11.30;52.50
31299;BME280;17927;52.350;13.402;2023-02-18T07:53:48;101131.41;;;11.32;52.59
31299;BME280;17927;52.350;13.402;2023-02-18T07:56:13;101124.88;;;11.34;52.76
31299;BME280;17927;52.350;13.402;2023-02-18T07:58:39;101113.91;;;11.36;52.55
31299;BME280;17927;52.350;13.402;2023-02-18T08:01:09;101122.75;;;11.38;53.12
31299;BME280;17927;52.350;13.402;2023-02-18T08:03:35;101116.47;;;11.37;53.08
31299;BME280;17927;52.350;13.402;2023-02-18T08:06:02;101123.31;;;11.41;53.07
31299;BME280;17927;52.350;13.402;2023-02-18T08:08:29;101118.63;;;11.43;53.12
31299;BME280;17927;52.350;13.402;2023-02-18T08:10:57;101115.78;;;11.45;53.25
31299;BME280;17927;52.350;13.402;2023-02-18T08:13:23;101107.66;;;11.45;53.36
31299;BME280;17927;52.350;13.402;2023-02-18T08:15:49;101106.66;;;11.46;53.58
31299;BME280;17927;52.350;13.402;2023-02-18T08:18:17;101102.97;;;11.47;53.36
31299;BME280;17927;52.350;13.402;2023-02-18T08:20:42;101097.56;;;11.47;53.51
31299;BME280;17927;52.350;13.402;2023-02-18T08:23:09;101092.16;;;11.47;53.44
31299;BME280;17927;52.350;13.402;2023-02-18T08:25:35;101086.88;;;11.46;53.66
31299;BME280;17927;52.350;13.402;2023-02-18T08:28:00;101079.75;;;11.45;53.67
31299;BME280;17927;52.350;13.402;2023-02-18T08:30:26;101078.94;;;11.44;53.92
31299;BME280;17927;52.350;13.402;2023-02-18T08:32:51;101075.50;;;11.42;53.80
31299;BME280;17927;52.350;13.402;2023-02-18T08:35:16;101079.19;;;11.41;54.17
31299;BME280;17927;52.350;13.402;2023-02-18T08:37:42;101069.50;;;11.38;54.42
31299;BME280;17927;52.350;13.402;2023-02-18T08:40:08;101060.25;;;11.41;54.26
31299;BME280;17927;52.350;13.402;2023-02-18T08:42:34;101052.16;;;11.41;54.48
31299;BME280;17927;52.350;13.402;2023-02-18T08:44:59;101051.88;;;11.44;54.59
31299;BME280;17927;52.350;13.402;2023-02-18T08:47:24;101040.03;;;11.45;54.49
31299;BME280;17927;52.350;13.402;2023-02-18T08:49:51;101038.91;;;11.48;54.69
31299;BME280;17927;52.350;13.402;2023-02-18T08:52:17;101036.06;;;11.49;54.83
31299;BME280;17927;52.350;13.402;2023-02-18T08:54:42;101033.34;;;11.49;54.69
31299;BME280;17927;52.350;13.402;2023-02-18T08:57:07;101026.09;;;11.50;54.80
31299;BME280;17927;52.350;13.402;2023-02-18T08:59:32;101028.81;;;11.50;54.69
31299;BME280;17927;52.350;13.402;2023-02-18T09:01:58;101017.00;;;11.51;54.56
31299;BME280;17927;52.350;13.402;2023-02-18T09:04:23;101019.69;;;11.51;55.06
31299;BME280;17927;52.350;13.402;2023-02-18T09:06:48;101022.53;;;11.49;55.01
31299;BME280;17927;52.350;13.402;2023-02-18T09:09:15;101018.81;;;11.50;54.98
31299;BME280;17927;52.350;13.402;2023-02-18T09:11:40;101022.25;;;11.52;55.15
31299;BME280;17927;52.350;13.402;2023-02-18T09:14:06;101004.16;;;11.53;55.27
31299;BME280;17927;52.350;13.402;2023-02-18T09:16:31;101004.03;;;11.54;55.00
31299;BME280;17927;52.350;13.402;2023-02-18T09:18:56;100998.44;;;11.56;55.05
31299;BME280;17927;52.350;13.402;2023-02-18T09:21:23;100987.50;;;11.57;55.31
31299;BME280;17927;52.350;13.402;2023-02-18T09:23:49;100982.94;;;11.58;55.11
31299;BME280;17927;52.350;13.402;2023-02-18T09:26:16;100979.25;;;11.59;55.48
31299;BME280;17927;52.350;13.402;2023-02-18T09:28:42;100973.09;;;11.57;55.42
31299;BME280;17927;52.350;13.402;2023-02-18T09:31:13;100979.50;;;11.56;55.28
31299;BME280;17927;52.350;13.402;2023-02-18T09:33:42;100968.84;;;11.54;55.51
31299;BME280;17927;52.350;13.402;2023-02-18T09:36:08;100962.56;;;11.54;55.59
31299;BME280;17927;52.350;13.402;2023-02-18T09:38:34;100959.88;;;11.54;56.07
31299;BME280;17927;52.350;13.402;2023-02-18T09:41:02;100946.22;;;11.55;56.19
31299;BME280;17927;52.350;13.402;2023-02-18T09:43:45;100956.03;;;11.56;56.34
31299;BME280;17927;52.350;13.402;2023-02-18T09:48:48;100948.91;;;11.55;56.59
31299;BME280;17927;52.350;13.402;2023-02-18T09:51:15;100938.09;;;11.55;56.89
31299;BME280;17927;52.350;13.402;2023-02-18T09:53:43;100930.97;;;11.54;56.86
31299;BME280;17927;52.350;13.402;2023-02-18T09:56:15;100929.44;;;11.52;57.15
31299;BME280;17927;52.350;13.402;2023-02-18T09:58:43;100915.03;;;11.51;57.33
31299;BME280;17927;52.350;13.402;2023-02-18T10:01:23;100896.63;;;11.55;57.52
31299;BME280;17927;52.350;13.402;2023-02-18T10:03:51;100888.69;;;11.53;57.38
31299;BME280;17927;52.350;13.402;2023-02-18T10:06:25;100895.81;;;11.54;57.80
31299;BME280;17927;52.350;13.402;2023-02-18T10:08:53;100880.72;;;11.52;57.78
31299;BME280;17927;52.350;13.402;2023-02-18T10:11:30;100880.84;;;11.50;57.77
31299;BME280;17927;52.350;13.402;2023-02-18T10:13:57;100876.31;;;11.51;57.92
31299;BME280;17927;52.350;13.402;2023-02-18T10:16:25;100877.31;;;11.50;58.22
31299;BME280;17927;52.350;13.402;2023-02-18T10:19:00;100877.00;;;11.53;57.98
31299;BME280;17927;52.350;13.402;2023-02-18T10:21:29;100881.56;;;11.52;58.05
31299;BME280;17927;52.350;13.402;2023-02-18T10:24:03;100867.03;;;11.53;57.98
31299;BME280;17927;52.350;13.402;2023-02-18T10:26:33;100860.09;;;11.51;58.23
31299;BME280;17927;52.350;13.402;2023-02-18T10:28:59;100846.69;;;11.49;58.28
31299;BME280;17927;52.350;13.402;2023-02-18T10:31:33;100838.72;;;11.48;58.44
31299;BME280;17927;52.350;13.402;2023-02-18T10:34:14;100833.44;;;11.46;58.38
31299;BME280;17927;52.350;13.402;2023-02-18T10:36:45;100827.50;;;11.42;58.57
31299;BME280;17927;52.350;13.402;2023-02-18T10:39:33;100818.09;;;11.47;58.88
31299;BME280;17927;52.350;13.402;2023-02-18T10:45:27;100793.03;;;11.45;58.97
31299;BME280;17927;52.350;13.402;2023-02-18T10:50:46;100773.09;;;11.46;59.09
31299;BME280;17927;52.350;13.402;2023-02-18T10:53:21;100760.13;;;11.49;59.30
31299;BME280;17927;52.350;13.402;2023-02-18T10:55:49;100760.00;;;11.51;59.21
31299;BME280;17927;52.350;13.402;2023-02-18T11:00:59;100749.72;;;11.54;59.33
31299;BME280;17927;52.350;13.402;2023-02-18T11:03:46;100734.31;;;11.55;59.17
31299;BME280;17927;52.350;13.402;2023-02-18T11:06:24;100722.66;;;11.54;59.48
31299;BME280;17927;52.350;13.402;2023-02-18T11:08:52;100714.25;;;11.57;59.59
31299;BME280;17927;52.350;13.402;2023-02-18T11:13:54;100686.56;;;11.64;59.58
31299;BME280;17927;52.350;13.402;2023-02-18T11:16:24;100685.28;;;11.68;59.88
31299;BME280;17927;52.350;13.402;2023-02-18T11:19:00;100671.75;;;11.68;59.87
31299;BME280;17927;52.350;13.402;2023-02-18T11:21:35;100654.22;;;11.72;59.99
31299;BME280;17927;52.350;13.402;2023-02-18T11:24:08;100653.19;;;11.73;60.23
31299;BME280;17927;52.350;13.402;2023-02-18T11:26:35;100643.91;;;11.76;60.24
31299;BME280;17927;52.350;13.402;2023-02-18T11:29:15;100647.16;;;11.79;60.41
31299;BME280;17927;52.350;13.402;2023-02-18T11:31:46;100636.34;;;11.79;60.17
31299;BME280;17927;52.350;13.402;2023-02-18T11:34:19;100626.38;;;11.80;60.47
31299;BME280;17927;52.350;13.402;2023-02-18T11:36:45;100628.09;;;11.81;60.63
31299;BME280;17927;52.350;13.402;2023-02-18T11:39:22;100622.50;;;11.82;60.45
31299;BME280;17927;52.350;13.402;2023-02-18T11:42:06;100614.22;;;11.84;60.61
31299;BME280;17927;52.350;13.402;2023-02-18T11:44:36;100619.09;;;11.80;60.58
31299;BME280;17927;52.350;13.402;2023-02-18T11:49:37;100591.34;;;11.78;61.00
31299;BME280;17927;52.350;13.402;2023-02-18T11:55:04;100583.22;;;11.78;61.43
31299;BME280;17927;52.350;13.402;2023-02-18T11:57:30;100565.28;;;11.77;62.02
31299;BME280;17927;52.350;13.402;2023-02-18T11:59:57;100557.16;;;11.77;62.15
31299;BME280;17927;52.350;13.402;2023-02-18T12:02:33;100553.31;;;11.80;62.42
31299;BME280;17927;52.350;13.402;2023-02-18T12:05:10;100542.19;;;11.83;62.67
31299;BME280;17927;52.350;13.402;2023-02-18T12:07:49;100535.41;;;11.87;62.86
31299;BME280;17927;52.350;13.402;2023-02-18T12:10:31;100540.34;;;11.92;62.99
31299;BME280;17927;52.350;13.402;2023-02-18T12:13:17;100523.81;;;11.95;63.39
31299;BME280;17927;52.350;13.402;2023-02-18T12:15:47;100525.38;;;11.97;63.37
31299;BME280;17927;52.350;13.402;2023-02-18T12:18:20;100531.16;;;12.02;64.00
31299;BME280;17927;52.350;13.402;2023-02-18T12:21:00;100509.03;;;12.07;64.47
31299;BME280;17927;52.350;13.402;2023-02-18T12:23:37;100503.31;;;12.10;64.64
31299;BME280;17927;52.350;13.402;2023-02-18T12:26:23;100494.69;;;12.15;65.32
31299;BME280;17927;52.350;13.402;2023-02-18T12:29:22;100492.22;;;12.22;65.75
31299;BME280;17927;52.350;13.402;2023-02-18T12:32:18;100491.75;;;12.26;66.26
31299;BME280;17927;52.350;13.402;2023-02-18T12:35:14;100492.78;;;12.33;66.47
31299;BME280;17927;52.350;13.402;2023-02-18T12:40:39;100485.06;;;12.47;66.90
31299;BME280;17927;52.350;13.402;2023-02-18T12:45:51;100478.38;;;12.59;67.21
31299;BME280;17927;52.350;13.402;2023-02-18T12:51:37;100468.22;;;12.70;67.47
31299;BME280;17927;52.350;13.402;2023-02-18T12:57:28;100453.69;;;12.79;67.94
31299;BME280;17927;52.350;13.402;2023-02-18T13:05:34;100454.59;;;13.04;68.36
31299;BME280;17927;52.350;13.402;2023-02-18T13:08:23;100455.78;;;13.10;68.50
31299;BME280;17927;52.350;13.402;2023-02-18T13:11:00;100439.69;;;13.17;68.77
31299;BME280;17927;52.350;13.402;2023-02-18T13:13:33;100441.75;;;13.23;68.83
31299;BME280;17927;52.350;13.402;2023-02-18T13:16:11;100440.72;;;13.32;68.75
31299;BME280;17927;52.350;13.402;2023-02-18T13:18:40;100432.94;;;13.37;68.84
31299;BME280;17927;52.350;13.402;2023-02-18T13:21:11;100429.59;;;13.44;68.83
31299;BME280;17927;52.350;13.402;2023-02-18T13:23:44;100432.47;;;13.50;69.04
31299;BME280;17927;52.350;13.402;2023-02-18T13:26:13;100432.78;;;13.55;69.03
31299;BME280;17927;52.350;13.402;2023-02-18T13:28:51;100417.53;;;13.63;69.25
31299;BME280;17927;52.350;13.402;2023-02-18T13:34:16;100401.06;;;13.73;68.77
31299;BME280;17927;52.350;13.402;2023-02-18T13:39:21;100404.44;;;13.83;68.84
31299;BME280;17927;52.350;13.402;2023-02-18T13:41:50;100404.75;;;13.88;68.80
31299;BME280;17927;52.350;13.402;2023-02-18T13:46:48;100428.03;;;13.82;68.71
31299;BME280;17927;52.350;13.402;2023-02-18T13:49:22;100413.94;;;13.87;68.63
31299;BME280;17927;52.350;13.402;2023-02-18T13:51:54;100418.69;;;13.93;68.40
31299;BME280;17927;52.350;13.402;2023-02-18T13:56:57;100409.00;;;13.99;68.10